Home > Products > Valid Products > TAF

000
FTUS45 KREV 281720
TAFRNO
TAF
KRNO 281720Z 2818/2918 35011G18KT P6SM VCSH BKN060
     FM290100 33009KT P6SM SCT060
     FM290700 VRB04KT P6SM SCT100=



000
FTUS45 KREV 281532 AAA
TAFRNO
TAF AMD
KRNO 281532Z 2816/2912 35013KT P6SM BKN040 BKN070
     FM281800 35011G18KT P6SM VCSH BKN060
     FM290100 33009KT P6SM SCT060=



000
FTUS45 KREV 281532 AAA
TAFRNO
TAF AMD
KRNO 281532Z 2816/2912 35013KT P6SM BKN040 BKN070
     FM281800 35011G18KT P6SM VCSH BKN060
     FM290100 33009KT P6SM SCT060=



000
FTUS45 KREV 281126
TAFRNO
TAF
KRNO 281126Z 2812/2912 33009KT P6SM SCT030 BKN090
     FM282000 35011G18KT P6SM VCSH BKN060
     FM290200 VRB03KT P6SM SCT030=



000
FTUS45 KREV 280527
TAFRNO
TAF
KRNO 280527Z 2806/2906 VRB05KT P6SM VCSH SCT030 BKN080
     FM282000 01008KT P6SM SCT060
     FM290200 VRB03KT P6SM SKC=



000
FTUS45 KREV 280420 AAA
TAFRNO
TAF AMD
KRNO 280420Z 2804/2824 34009KT 6SM RA BKN035 OVC050
     FM280600 VRB05KT P6SM BKN100
     FM282200 01008KT P6SM BKN100=



000
FTUS45 KREV 280420 AAA
TAFRNO
TAF AMD
KRNO 280420Z 2804/2824 34009KT 6SM RA BKN035 OVC050
     FM280600 VRB05KT P6SM BKN100
     FM282200 01008KT P6SM BKN100=



000
FTUS45 KREV 272320
TAFRNO
TAF
KRNO 272320Z 2800/2824 34009KT P6SM VCSH SCT060 BKN100
     FM280100 31012G22KT P6SM VCSH BKN035 OVC050
     FM280900 33010G16KT P6SM BKN100
     FM282200 01008KT P6SM BKN100=



000
FTUS45 KREV 271734
TAFRNO
TAF
KRNO 271734Z 2718/2818 VRB04KT P6SM VCSH BKN040 BKN080
     FM272100 34009KT P6SM -SHRA VCTS BKN040CB OVC080
     FM280100 31012G22KT P6SM VCSH BKN035 OVC050
     FM280900 33010KT P6SM BKN100=



000
FTUS45 KREV 271140
TAFRNO
TAF
KRNO 271140Z 2712/2812 VRB04KT P6SM VCSH BKN040 BKN080
     FM272100 34009KT P6SM -SHRA VCTS BKN040CB OVC080
     FM280100 31012G22KT P6SM VCSH BKN035 OVC050
     FM280900 33010KT P6SM BKN100=



000
FTUS45 KREV 270520
TAFRNO
TAF
KRNO 270520Z 2706/2806 30008KT P6SM SCT060 OVC090
     FM270900 VRB04KT P6SM VCSH BKN050 OVC080
     FM272100 34009KT P6SM -SHRA VCTS BKN040CB OVC080
     FM280100 31012G22KT P6SM VCSH BKN035 OVC050=



000
FTUS45 KREV 270416 AAB
TAFRNO
TAF AMD
KRNO 270416Z 2704/2724 29012G20KT P6SM BKN060 OVC100
     FM270600 33008KT P6SM SCT060 OVC100
     FM271600 30008KT P6SM VCSH BKN080 OVC100
     FM272100 33008KT P6SM VCSH BKN050 OVC080=



000
FTUS45 KREV 270132 AAA
TAFRNO
TAF AMD
KRNO 270132Z 2702/2724 30012G22KT P6SM VCSH SCT060 OVC090
     FM270400 33008KT P6SM SCT090 OVC200
     FM271600 30008KT P6SM VCSH BKN080 OVC100
     FM272100 33008KT P6SM VCSH BKN050 OVC080=



000
FTUS45 KREV 262339
TAFRNO
TAF
KRNO 262339Z 2700/2724 31010KT P6SM SCT080 OVC140
     FM271600 30008KT P6SM VCSH BKN080 OVC100
     FM272100 33008KT P6SM VCSH BKN050 OVC080=



000
FTUS45 KREV 261742
TAFRNO
TAF
KRNO 261742Z 2618/2718 03008KT P6SM FEW080
     FM262100 31010KT P6SM OVC180
     FM271600 33007KT P6SM VCSH BKN080 OVC120=



000
FTUS45 KREV 261120
TAFRNO
TAF
KRNO 261120Z 2612/2712 03008KT P6SM FEW080
     FM262100 31010KT P6SM OVC180=



000
FTUS45 KREV 261120
TAFRNO
TAF
KRNO 261120Z 2612/2712 03008KT P6SM FEW080
     FM262100 31010KT P6SM OVC180=



000
FTUS45 KREV 260520
TAFRNO
TAF
KRNO 260520Z 2606/2706 32006KT P6SM BKN080
     FM261000 VRB03KT P6SM FEW080
     FM262100 31010KT P6SM OVC180=



000
FTUS45 KREV 252332
TAFRNO
TAF
KRNO 252332Z 2600/2624 35013G22KT P6SM BKN070
     FM260200 33009KT P6SM BKN080
     FM260700 33005KT P6SM FEW090
     FM262100 35008KT P6SM SCT120 OVC180=



    US Dept of Commerce
    National Oceanic and Atmospheric Administration
    National Weather Service
    1325 East West Highway
    Silver Spring, MD 20910
    Page Author: NWS Internet Services Team
Disclaimer
Information Quality
Credits
Glossary
Privacy Policy
Freedom of Information Act (FOIA)
About Us
Career Opportunities